sensor_id;sensor_type;location;lat;lon;timestamp;P1;durP1;ratioP1;P2;durP2;ratioP2
25359;SDS011;13311;51.386;0.016;2022-08-02T00:00:40;5.15;;;2.00;;
25359;SDS011;13311;51.386;0.016;2022-08-02T00:05:41;4.95;;;2.15;;
25359;SDS011;13311;51.386;0.016;2022-08-02T00:10:42;1.70;;;1.50;;
25359;SDS011;13311;51.386;0.016;2022-08-02T00:15:42;2.28;;;1.60;;
25359;SDS011;13311;51.386;0.016;2022-08-02T00:20:43;5.65;;;2.35;;
25359;SDS011;13311;51.386;0.016;2022-08-02T00:25:44;5.18;;;1.77;;
25359;SDS011;13311;51.386;0.016;2022-08-02T00:30:45;4.45;;;1.77;;
25359;SDS011;13311;51.386;0.016;2022-08-02T00:35:45;2.40;;;1.77;;
25359;SDS011;13311;51.386;0.016;2022-08-02T00:40:47;6.38;;;2.05;;
25359;SDS011;13311;51.386;0.016;2022-08-02T00:45:49;2.92;;;2.15;;
25359;SDS011;13311;51.386;0.016;2022-08-02T00:50:50;3.10;;;1.60;;
25359;SDS011;13311;51.386;0.016;2022-08-02T00:55:51;3.40;;;1.80;;
25359;SDS011;13311;51.386;0.016;2022-08-02T01:00:52;5.47;;;1.98;;
25359;SDS011;13311;51.386;0.016;2022-08-02T01:05:55;4.00;;;1.90;;
25359;SDS011;13311;51.386;0.016;2022-08-02T01:10:56;1.75;;;1.63;;
25359;SDS011;13311;51.386;0.016;2022-08-02T01:15:59;3.58;;;2.00;;
25359;SDS011;13311;51.386;0.016;2022-08-02T01:21:13;3.30;;;2.05;;
25359;SDS011;13311;51.386;0.016;2022-08-02T01:32:13;3.58;;;2.15;;
25359;SDS011;13311;51.386;0.016;2022-08-02T01:37:38;5.13;;;1.90;;
25359;SDS011;13311;51.386;0.016;2022-08-02T01:42:50;8.52;;;2.40;;
25359;SDS011;13311;51.386;0.016;2022-08-02T01:47:53;3.28;;;1.65;;
25359;SDS011;13311;51.386;0.016;2022-08-02T01:52:56;4.03;;;1.60;;
25359;SDS011;13311;51.386;0.016;2022-08-02T01:58:01;6.38;;;1.70;;
25359;SDS011;13311;51.386;0.016;2022-08-02T02:03:04;2.83;;;2.05;;
25359;SDS011;13311;51.386;0.016;2022-08-02T02:08:11;5.25;;;2.28;;
25359;SDS011;13311;51.386;0.016;2022-08-02T02:13:15;2.90;;;1.80;;
25359;SDS011;13311;51.386;0.016;2022-08-02T02:18:22;2.58;;;1.80;;
25359;SDS011;13311;51.386;0.016;2022-08-02T02:23:25;6.10;;;1.98;;
25359;SDS011;13311;51.386;0.016;2022-08-02T02:28:26;3.10;;;1.83;;
25359;SDS011;13311;51.386;0.016;2022-08-02T02:33:30;3.72;;;1.60;;
25359;SDS011;13311;51.386;0.016;2022-08-02T02:38:36;3.10;;;1.70;;
25359;SDS011;13311;51.386;0.016;2022-08-02T02:43:38;5.57;;;1.80;;
25359;SDS011;13311;51.386;0.016;2022-08-02T02:48:40;4.03;;;2.00;;
25359;SDS011;13311;51.386;0.016;2022-08-02T02:53:42;4.13;;;1.92;;
25359;SDS011;13311;51.386;0.016;2022-08-02T02:58:44;3.10;;;1.95;;
25359;SDS011;13311;51.386;0.016;2022-08-02T03:03:46;5.18;;;2.25;;
25359;SDS011;13311;51.386;0.016;2022-08-02T03:08:48;4.68;;;2.38;;
25359;SDS011;13311;51.386;0.016;2022-08-02T03:13:49;3.22;;;2.13;;
25359;SDS011;13311;51.386;0.016;2022-08-02T03:18:50;2.40;;;1.83;;
25359;SDS011;13311;51.386;0.016;2022-08-02T03:23:51;2.95;;;1.92;;
25359;SDS011;13311;51.386;0.016;2022-08-02T03:28:51;3.25;;;2.25;;
25359;SDS011;13311;51.386;0.016;2022-08-02T03:33:53;3.47;;;2.00;;
25359;SDS011;13311;51.386;0.016;2022-08-02T03:38:55;3.60;;;1.92;;
25359;SDS011;13311;51.386;0.016;2022-08-02T03:43:57;3.13;;;2.10;;
25359;SDS011;13311;51.386;0.016;2022-08-02T03:48:58;4.68;;;2.00;;
25359;SDS011;13311;51.386;0.016;2022-08-02T03:54:00;3.08;;;1.83;;
25359;SDS011;13311;51.386;0.016;2022-08-02T03:59:06;7.75;;;2.58;;
25359;SDS011;13311;51.386;0.016;2022-08-02T04:04:08;3.80;;;2.53;;
25359;SDS011;13311;51.386;0.016;2022-08-02T04:09:09;3.53;;;2.00;;
25359;SDS011;13311;51.386;0.016;2022-08-02T04:14:09;5.90;;;2.22;;
25359;SDS011;13311;51.386;0.016;2022-08-02T04:19:16;3.25;;;2.28;;
25359;SDS011;13311;51.386;0.016;2022-08-02T04:24:29;5.07;;;2.38;;
25359;SDS011;13311;51.386;0.016;2022-08-02T04:29:36;3.70;;;2.33;;
25359;SDS011;13311;51.386;0.016;2022-08-02T04:34:38;8.38;;;2.60;;
25359;SDS011;13311;51.386;0.016;2022-08-02T04:39:41;5.22;;;2.92;;
25359;SDS011;13311;51.386;0.016;2022-08-02T04:44:42;6.03;;;3.85;;
25359;SDS011;13311;51.386;0.016;2022-08-02T04:49:43;4.97;;;4.05;;
25359;SDS011;13311;51.386;0.016;2022-08-02T04:54:44;5.35;;;4.07;;
25359;SDS011;13311;51.386;0.016;2022-08-02T04:59:45;7.63;;;4.57;;
25359;SDS011;13311;51.386;0.016;2022-08-02T05:04:46;6.63;;;3.80;;
25359;SDS011;13311;51.386;0.016;2022-08-02T05:09:46;4.93;;;3.88;;
25359;SDS011;13311;51.386;0.016;2022-08-02T05:14:47;5.10;;;3.50;;
25359;SDS011;13311;51.386;0.016;2022-08-02T05:19:48;5.18;;;3.35;;
25359;SDS011;13311;51.386;0.016;2022-08-02T05:24:49;4.93;;;2.72;;
25359;SDS011;13311;51.386;0.016;2022-08-02T05:29:50;3.72;;;2.85;;
25359;SDS011;13311;51.386;0.016;2022-08-02T05:34:51;3.75;;;2.92;;
25359;SDS011;13311;51.386;0.016;2022-08-02T05:39:52;2.88;;;2.25;;
25359;SDS011;13311;51.386;0.016;2022-08-02T05:44:53;5.63;;;3.15;;
25359;SDS011;13311;51.386;0.016;2022-08-02T05:49:54;6.45;;;3.03;;
25359;SDS011;13311;51.386;0.016;2022-08-02T05:55:05;7.03;;;2.65;;
25359;SDS011;13311;51.386;0.016;2022-08-02T06:00:17;4.70;;;3.20;;
25359;SDS011;13311;51.386;0.016;2022-08-02T06:05:20;6.40;;;3.83;;
25359;SDS011;13311;51.386;0.016;2022-08-02T06:10:21;8.45;;;4.15;;
25359;SDS011;13311;51.386;0.016;2022-08-02T06:15:22;7.15;;;3.42;;
25359;SDS011;13311;51.386;0.016;2022-08-02T06:20:23;3.53;;;3.08;;
25359;SDS011;13311;51.386;0.016;2022-08-02T06:25:26;9.90;;;4.15;;
25359;SDS011;13311;51.386;0.016;2022-08-02T06:30:29;6.95;;;4.78;;
25359;SDS011;13311;51.386;0.016;2022-08-02T06:35:33;4.40;;;4.00;;
25359;SDS011;13311;51.386;0.016;2022-08-02T06:40:57;11.65;;;4.72;;
25359;SDS011;13311;51.386;0.016;2022-08-02T06:46:05;7.15;;;3.92;;
25359;SDS011;13311;51.386;0.016;2022-08-02T06:51:07;7.55;;;4.13;;
25359;SDS011;13311;51.386;0.016;2022-08-02T06:56:07;5.00;;;2.80;;
25359;SDS011;13311;51.386;0.016;2022-08-02T07:01:08;7.05;;;3.78;;
25359;SDS011;13311;51.386;0.016;2022-08-02T07:06:10;6.60;;;3.60;;
25359;SDS011;13311;51.386;0.016;2022-08-02T07:11:10;5.57;;;3.28;;
25359;SDS011;13311;51.386;0.016;2022-08-02T07:16:11;5.20;;;3.45;;
25359;SDS011;13311;51.386;0.016;2022-08-02T07:21:12;26.88;;;8.18;;
25359;SDS011;13311;51.386;0.016;2022-08-02T07:26:13;7.07;;;4.18;;
25359;SDS011;13311;51.386;0.016;2022-08-02T07:31:13;8.40;;;3.53;;
25359;SDS011;13311;51.386;0.016;2022-08-02T07:36:14;11.45;;;3.67;;
25359;SDS011;13311;51.386;0.016;2022-08-02T07:41:15;6.72;;;3.30;;
25359;SDS011;13311;51.386;0.016;2022-08-02T07:46:16;8.25;;;3.17;;
25359;SDS011;13311;51.386;0.016;2022-08-02T07:51:17;8.25;;;3.40;;
25359;SDS011;13311;51.386;0.016;2022-08-02T07:56:18;4.82;;;2.65;;
25359;SDS011;13311;51.386;0.016;2022-08-02T08:01:19;5.80;;;2.10;;
25359;SDS011;13311;51.386;0.016;2022-08-02T08:06:19;5.47;;;2.67;;
25359;SDS011;13311;51.386;0.016;2022-08-02T08:11:20;4.38;;;2.90;;
25359;SDS011;13311;51.386;0.016;2022-08-02T08:16:21;4.70;;;2.75;;
25359;SDS011;13311;51.386;0.016;2022-08-02T08:21:22;3.13;;;2.22;;
25359;SDS011;13311;51.386;0.016;2022-08-02T08:26:23;2.92;;;1.95;;
25359;SDS011;13311;51.386;0.016;2022-08-02T08:31:25;4.50;;;2.25;;
25359;SDS011;13311;51.386;0.016;2022-08-02T08:36:26;6.53;;;2.33;;
25359;SDS011;13311;51.386;0.016;2022-08-02T08:41:27;5.55;;;2.50;;
25359;SDS011;13311;51.386;0.016;2022-08-02T08:46:29;5.25;;;2.22;;
25359;SDS011;13311;51.386;0.016;2022-08-02T08:51:37;10.52;;;3.03;;
25359;SDS011;13311;51.386;0.016;2022-08-02T08:56:42;4.38;;;2.40;;
25359;SDS011;13311;51.386;0.016;2022-08-02T09:01:44;5.05;;;2.67;;
25359;SDS011;13311;51.386;0.016;2022-08-02T09:06:46;5.78;;;2.50;;
25359;SDS011;13311;51.386;0.016;2022-08-02T09:11:47;4.00;;;1.75;;
25359;SDS011;13311;51.386;0.016;2022-08-02T09:16:48;2.20;;;1.63;;
25359;SDS011;13311;51.386;0.016;2022-08-02T09:21:49;12.05;;;2.25;;
25359;SDS011;13311;51.386;0.016;2022-08-02T09:27:08;5.25;;;2.38;;
25359;SDS011;13311;51.386;0.016;2022-08-02T09:32:21;3.15;;;2.25;;
25359;SDS011;13311;51.386;0.016;2022-08-02T09:37:25;3.95;;;2.60;;
25359;SDS011;13311;51.386;0.016;2022-08-02T09:42:29;3.70;;;2.30;;
25359;SDS011;13311;51.386;0.016;2022-08-02T09:47:30;3.00;;;2.03;;
25359;SDS011;13311;51.386;0.016;2022-08-02T09:52:32;11.48;;;3.38;;
25359;SDS011;13311;51.386;0.016;2022-08-02T09:57:33;56.95;;;7.00;;
25359;SDS011;13311;51.386;0.016;2022-08-02T10:02:37;8.52;;;3.75;;
25359;SDS011;13311;51.386;0.016;2022-08-02T10:07:38;6.13;;;3.40;;
25359;SDS011;13311;51.386;0.016;2022-08-02T10:12:39;6.75;;;3.65;;
25359;SDS011;13311;51.386;0.016;2022-08-02T10:17:40;6.13;;;2.97;;
25359;SDS011;13311;51.386;0.016;2022-08-02T10:22:42;3.75;;;2.40;;
25359;SDS011;13311;51.386;0.016;2022-08-02T10:27:43;5.95;;;2.75;;
25359;SDS011;13311;51.386;0.016;2022-08-02T10:32:44;8.43;;;3.05;;
25359;SDS011;13311;51.386;0.016;2022-08-02T10:37:47;6.03;;;2.30;;
25359;SDS011;13311;51.386;0.016;2022-08-02T10:42:56;8.95;;;2.78;;
25359;SDS011;13311;51.386;0.016;2022-08-02T10:53:29;2.78;;;2.08;;
25359;SDS011;13311;51.386;0.016;2022-08-02T10:58:35;3.25;;;1.75;;
25359;SDS011;13311;51.386;0.016;2022-08-02T11:03:37;3.20;;;1.88;;
25359;SDS011;13311;51.386;0.016;2022-08-02T11:08:39;5.03;;;2.20;;
25359;SDS011;13311;51.386;0.016;2022-08-02T11:19:07;2.37;;;1.80;;
25359;SDS011;13311;51.386;0.016;2022-08-02T11:24:27;3.22;;;1.20;;
25359;SDS011;13311;51.386;0.016;2022-08-02T11:29:47;3.70;;;1.30;;
25359;SDS011;13311;51.386;0.016;2022-08-02T11:34:49;3.13;;;1.23;;
25359;SDS011;13311;51.386;0.016;2022-08-02T11:39:52;1.60;;;0.90;;
25359;SDS011;13311;51.386;0.016;2022-08-02T11:44:53;3.70;;;1.05;;
25359;SDS011;13311;51.386;0.016;2022-08-02T11:50:05;2.83;;;1.27;;
25359;SDS011;13311;51.386;0.016;2022-08-02T11:55:08;3.25;;;0.90;;
25359;SDS011;13311;51.386;0.016;2022-08-02T12:00:16;4.75;;;1.30;;
25359;SDS011;13311;51.386;0.016;2022-08-02T12:10:21;1.42;;;0.90;;
25359;SDS011;13311;51.386;0.016;2022-08-02T12:20:40;1.87;;;1.57;;
25359;SDS011;13311;51.386;0.016;2022-08-02T12:25:42;1.75;;;0.80;;
25359;SDS011;13311;51.386;0.016;2022-08-02T12:30:49;3.03;;;1.33;;
25359;SDS011;13311;51.386;0.016;2022-08-02T12:35:55;2.75;;;1.27;;
25359;SDS011;13311;51.386;0.016;2022-08-02T12:40:56;3.30;;;1.35;;
25359;SDS011;13311;51.386;0.016;2022-08-02T12:46:16;3.25;;;1.27;;
25359;SDS011;13311;51.386;0.016;2022-08-02T12:51:23;2.23;;;1.43;;
25359;SDS011;13311;51.386;0.016;2022-08-02T12:56:30;2.90;;;1.50;;
25359;SDS011;13311;51.386;0.016;2022-08-02T13:01:37;5.97;;;1.58;;
25359;SDS011;13311;51.386;0.016;2022-08-02T13:06:38;2.75;;;1.23;;
25359;SDS011;13311;51.386;0.016;2022-08-02T13:11:39;3.63;;;1.45;;
25359;SDS011;13311;51.386;0.016;2022-08-02T13:16:41;3.20;;;0.90;;
25359;SDS011;13311;51.386;0.016;2022-08-02T13:21:44;0.70;;;0.70;;
25359;SDS011;13311;51.386;0.016;2022-08-02T13:26:45;3.03;;;1.17;;
25359;SDS011;13311;51.386;0.016;2022-08-02T13:31:46;4.45;;;1.35;;
25359;SDS011;13311;51.386;0.016;2022-08-02T13:36:48;7.38;;;1.70;;
25359;SDS011;13311;51.386;0.016;2022-08-02T13:41:49;5.47;;;1.30;;
25359;SDS011;13311;51.386;0.016;2022-08-02T13:46:49;5.85;;;1.55;;
25359;SDS011;13311;51.386;0.016;2022-08-02T13:51:50;6.15;;;1.13;;
25359;SDS011;13311;51.386;0.016;2022-08-02T13:56:51;1.60;;;0.90;;
25359;SDS011;13311;51.386;0.016;2022-08-02T14:01:52;2.65;;;1.00;;
25359;SDS011;13311;51.386;0.016;2022-08-02T14:06:55;2.33;;;1.13;;
25359;SDS011;13311;51.386;0.016;2022-08-02T14:11:57;7.43;;;1.23;;
25359;SDS011;13311;51.386;0.016;2022-08-02T14:16:59;3.33;;;1.35;;
25359;SDS011;13311;51.386;0.016;2022-08-02T14:21:59;5.38;;;1.88;;
25359;SDS011;13311;51.386;0.016;2022-08-02T14:27:00;3.47;;;1.65;;
25359;SDS011;13311;51.386;0.016;2022-08-02T14:32:02;5.45;;;1.75;;
25359;SDS011;13311;51.386;0.016;2022-08-02T14:37:03;4.00;;;1.60;;
25359;SDS011;13311;51.386;0.016;2022-08-02T14:42:03;4.00;;;1.52;;
25359;SDS011;13311;51.386;0.016;2022-08-02T14:47:04;5.03;;;1.92;;
25359;SDS011;13311;51.386;0.016;2022-08-02T14:52:05;10.00;;;2.53;;
25359;SDS011;13311;51.386;0.016;2022-08-02T14:57:06;6.13;;;2.72;;
25359;SDS011;13311;51.386;0.016;2022-08-02T15:02:07;4.55;;;1.55;;
25359;SDS011;13311;51.386;0.016;2022-08-02T15:07:09;10.48;;;3.08;;
25359;SDS011;13311;51.386;0.016;2022-08-02T15:12:10;6.43;;;2.80;;
25359;SDS011;13311;51.386;0.016;2022-08-02T15:17:11;5.72;;;1.83;;
25359;SDS011;13311;51.386;0.016;2022-08-02T15:22:12;11.20;;;2.88;;
25359;SDS011;13311;51.386;0.016;2022-08-02T15:27:14;2.15;;;1.52;;
25359;SDS011;13311;51.386;0.016;2022-08-02T15:32:15;3.90;;;1.77;;
25359;SDS011;13311;51.386;0.016;2022-08-02T15:37:18;4.78;;;1.70;;
25359;SDS011;13311;51.386;0.016;2022-08-02T15:42:19;5.05;;;1.67;;
25359;SDS011;13311;51.386;0.016;2022-08-02T15:47:20;5.63;;;1.42;;
25359;SDS011;13311;51.386;0.016;2022-08-02T15:52:21;10.48;;;1.95;;
25359;SDS011;13311;51.386;0.016;2022-08-02T15:57:21;5.20;;;2.05;;
25359;SDS011;13311;51.386;0.016;2022-08-02T16:02:23;6.72;;;2.25;;
25359;SDS011;13311;51.386;0.016;2022-08-02T16:07:23;3.72;;;2.17;;
25359;SDS011;13311;51.386;0.016;2022-08-02T16:12:24;7.05;;;1.80;;
25359;SDS011;13311;51.386;0.016;2022-08-02T16:17:25;7.05;;;2.05;;
25359;SDS011;13311;51.386;0.016;2022-08-02T16:22:26;6.85;;;2.63;;
25359;SDS011;13311;51.386;0.016;2022-08-02T16:27:26;3.92;;;2.13;;
25359;SDS011;13311;51.386;0.016;2022-08-02T16:32:27;5.32;;;2.10;;
25359;SDS011;13311;51.386;0.016;2022-08-02T16:37:28;7.13;;;1.88;;
25359;SDS011;13311;51.386;0.016;2022-08-02T16:42:29;8.25;;;2.22;;
25359;SDS011;13311;51.386;0.016;2022-08-02T16:47:30;7.85;;;2.28;;
25359;SDS011;13311;51.386;0.016;2022-08-02T16:52:30;3.60;;;1.80;;
25359;SDS011;13311;51.386;0.016;2022-08-02T16:57:31;3.92;;;1.85;;
25359;SDS011;13311;51.386;0.016;2022-08-02T17:02:35;8.35;;;2.35;;
25359;SDS011;13311;51.386;0.016;2022-08-02T17:07:39;5.85;;;2.05;;
25359;SDS011;13311;51.386;0.016;2022-08-02T17:12:40;5.65;;;1.70;;
25359;SDS011;13311;51.386;0.016;2022-08-02T17:17:41;8.30;;;1.85;;
25359;SDS011;13311;51.386;0.016;2022-08-02T17:22:41;6.47;;;2.80;;
25359;SDS011;13311;51.386;0.016;2022-08-02T17:27:42;6.93;;;2.35;;
25359;SDS011;13311;51.386;0.016;2022-08-02T17:32:44;7.40;;;2.72;;
25359;SDS011;13311;51.386;0.016;2022-08-02T17:37:45;4.05;;;1.48;;
25359;SDS011;13311;51.386;0.016;2022-08-02T17:42:45;4.45;;;2.08;;
25359;SDS011;13311;51.386;0.016;2022-08-02T17:47:46;7.13;;;2.38;;
25359;SDS011;13311;51.386;0.016;2022-08-02T17:52:47;5.38;;;1.85;;
25359;SDS011;13311;51.386;0.016;2022-08-02T17:57:48;5.90;;;1.80;;
25359;SDS011;13311;51.386;0.016;2022-08-02T18:02:48;8.57;;;2.42;;
25359;SDS011;13311;51.386;0.016;2022-08-02T18:07:49;8.77;;;3.10;;
25359;SDS011;13311;51.386;0.016;2022-08-02T18:12:50;9.82;;;3.17;;
25359;SDS011;13311;51.386;0.016;2022-08-02T18:17:52;7.23;;;2.60;;
25359;SDS011;13311;51.386;0.016;2022-08-02T18:22:53;4.38;;;2.10;;
25359;SDS011;13311;51.386;0.016;2022-08-02T18:27:53;7.15;;;2.67;;
25359;SDS011;13311;51.386;0.016;2022-08-02T18:32:54;11.52;;;3.45;;
25359;SDS011;13311;51.386;0.016;2022-08-02T18:37:55;11.88;;;3.55;;
25359;SDS011;13311;51.386;0.016;2022-08-02T18:42:56;8.65;;;2.97;;
25359;SDS011;13311;51.386;0.016;2022-08-02T18:47:56;14.05;;;3.92;;
25359;SDS011;13311;51.386;0.016;2022-08-02T18:52:57;8.30;;;2.35;;
25359;SDS011;13311;51.386;0.016;2022-08-02T18:57:58;10.32;;;2.72;;
25359;SDS011;13311;51.386;0.016;2022-08-02T19:02:59;12.55;;;3.83;;
25359;SDS011;13311;51.386;0.016;2022-08-02T19:08:00;10.85;;;3.60;;
25359;SDS011;13311;51.386;0.016;2022-08-02T19:13:01;11.27;;;3.15;;
25359;SDS011;13311;51.386;0.016;2022-08-02T19:18:02;12.52;;;2.92;;
25359;SDS011;13311;51.386;0.016;2022-08-02T19:23:04;8.27;;;3.17;;
25359;SDS011;13311;51.386;0.016;2022-08-02T19:28:08;11.10;;;3.13;;
25359;SDS011;13311;51.386;0.016;2022-08-02T19:33:09;11.27;;;3.50;;
25359;SDS011;13311;51.386;0.016;2022-08-02T19:38:10;9.60;;;3.05;;
25359;SDS011;13311;51.386;0.016;2022-08-02T19:43:11;12.13;;;3.22;;
25359;SDS011;13311;51.386;0.016;2022-08-02T19:48:12;6.72;;;3.22;;
25359;SDS011;13311;51.386;0.016;2022-08-02T19:53:13;7.65;;;4.03;;
25359;SDS011;13311;51.386;0.016;2022-08-02T19:58:16;14.27;;;3.72;;
25359;SDS011;13311;51.386;0.016;2022-08-02T20:03:16;10.30;;;3.90;;
25359;SDS011;13311;51.386;0.016;2022-08-02T20:08:17;10.18;;;3.13;;
25359;SDS011;13311;51.386;0.016;2022-08-02T20:13:18;5.60;;;2.80;;
25359;SDS011;13311;51.386;0.016;2022-08-02T20:18:19;13.82;;;3.38;;
25359;SDS011;13311;51.386;0.016;2022-08-02T20:23:19;10.00;;;3.50;;
25359;SDS011;13311;51.386;0.016;2022-08-02T20:28:22;11.77;;;3.40;;
25359;SDS011;13311;51.386;0.016;2022-08-02T20:33:23;10.38;;;3.30;;
25359;SDS011;13311;51.386;0.016;2022-08-02T20:38:23;13.05;;;4.05;;
25359;SDS011;13311;51.386;0.016;2022-08-02T20:43:24;11.90;;;3.42;;
25359;SDS011;13311;51.386;0.016;2022-08-02T20:48:25;12.10;;;3.55;;
25359;SDS011;13311;51.386;0.016;2022-08-02T20:53:26;16.50;;;3.72;;
25359;SDS011;13311;51.386;0.016;2022-08-02T20:58:27;12.73;;;4.00;;
25359;SDS011;13311;51.386;0.016;2022-08-02T21:03:28;19.52;;;4.93;;
25359;SDS011;13311;51.386;0.016;2022-08-02T21:08:29;10.73;;;3.50;;
25359;SDS011;13311;51.386;0.016;2022-08-02T21:13:30;9.75;;;3.42;;
25359;SDS011;13311;51.386;0.016;2022-08-02T21:18:31;11.27;;;3.63;;
25359;SDS011;13311;51.386;0.016;2022-08-02T21:23:31;7.60;;;3.45;;
25359;SDS011;13311;51.386;0.016;2022-08-02T21:28:32;13.88;;;3.88;;
25359;SDS011;13311;51.386;0.016;2022-08-02T21:33:33;10.27;;;3.53;;
25359;SDS011;13311;51.386;0.016;2022-08-02T21:38:34;14.13;;;3.70;;
25359;SDS011;13311;51.386;0.016;2022-08-02T21:43:35;15.30;;;3.28;;
25359;SDS011;13311;51.386;0.016;2022-08-02T21:48:36;9.95;;;3.22;;
25359;SDS011;13311;51.386;0.016;2022-08-02T21:53:37;13.15;;;4.03;;
25359;SDS011;13311;51.386;0.016;2022-08-02T21:58:38;13.55;;;4.47;;
25359;SDS011;13311;51.386;0.016;2022-08-02T22:03:38;10.75;;;3.17;;
25359;SDS011;13311;51.386;0.016;2022-08-02T22:08:39;10.88;;;3.35;;
25359;SDS011;13311;51.386;0.016;2022-08-02T22:13:40;14.40;;;4.63;;
25359;SDS011;13311;51.386;0.016;2022-08-02T22:18:41;13.20;;;4.18;;
25359;SDS011;13311;51.386;0.016;2022-08-02T22:23:41;16.15;;;3.58;;
25359;SDS011;13311;51.386;0.016;2022-08-02T22:28:42;11.77;;;2.80;;
25359;SDS011;13311;51.386;0.016;2022-08-02T22:33:43;10.13;;;3.17;;
25359;SDS011;13311;51.386;0.016;2022-08-02T22:39:03;16.67;;;3.75;;
25359;SDS011;13311;51.386;0.016;2022-08-02T22:44:06;13.82;;;3.47;;
25359;SDS011;13311;51.386;0.016;2022-08-02T22:49:07;12.68;;;3.53;;
25359;SDS011;13311;51.386;0.016;2022-08-02T22:54:08;17.67;;;3.72;;
25359;SDS011;13311;51.386;0.016;2022-08-02T22:59:09;10.45;;;3.85;;
25359;SDS011;13311;51.386;0.016;2022-08-02T23:04:10;13.02;;;3.40;;
25359;SDS011;13311;51.386;0.016;2022-08-02T23:09:10;11.35;;;3.30;;
25359;SDS011;13311;51.386;0.016;2022-08-02T23:14:11;12.43;;;3.63;;
25359;SDS011;13311;51.386;0.016;2022-08-02T23:19:12;13.05;;;3.97;;
25359;SDS011;13311;51.386;0.016;2022-08-02T23:24:33;17.42;;;5.10;;
25359;SDS011;13311;51.386;0.016;2022-08-02T23:29:34;13.13;;;3.63;;
25359;SDS011;13311;51.386;0.016;2022-08-02T23:34:34;15.15;;;4.25;;
25359;SDS011;13311;51.386;0.016;2022-08-02T23:39:35;12.80;;;4.82;;
25359;SDS011;13311;51.386;0.016;2022-08-02T23:44:37;16.42;;;4.60;;
25359;SDS011;13311;51.386;0.016;2022-08-02T23:49:38;11.20;;;3.58;;
25359;SDS011;13311;51.386;0.016;2022-08-02T23:54:39;11.73;;;3.90;;
25359;SDS011;13311;51.386;0.016;2022-08-02T23:59:40;12.18;;;4.35;;
